createdAt,value
2022-11-03T00:02:17.422Z,76.40
2022-11-03T00:04:49.127Z,77.13
2022-11-03T00:07:21.944Z,77.40
2022-11-03T00:09:51.520Z,77.50
2022-11-03T00:12:18.407Z,77.25
2022-11-03T00:14:45.334Z,76.44
2022-11-03T00:17:12.309Z,76.08
2022-11-03T00:19:39.134Z,75.26
2022-11-03T00:22:05.979Z,75.72
2022-11-03T00:24:35.412Z,75.34
2022-11-03T00:27:02.268Z,76.50
2022-11-03T00:29:33.969Z,76.02
2022-11-03T00:32:00.814Z,75.03
2022-11-03T00:34:27.690Z,74.47
2022-11-03T00:36:57.584Z,74.57
2022-11-03T00:39:24.412Z,75.31
2022-11-03T00:41:51.277Z,74.20
2022-11-03T00:44:18.151Z,74.88
2022-11-03T00:46:45.030Z,75.54
2022-11-03T00:49:13.969Z,75.59
2022-11-03T00:51:48.039Z,75.67
2022-11-03T00:54:14.895Z,75.91
2022-11-03T00:56:46.833Z,76.04
2022-11-03T00:59:13.636Z,76.33
2022-11-03T01:01:47.779Z,76.12
2022-11-03T01:04:37.298Z,76.64
2022-11-03T01:07:09.402Z,77.01
2022-11-03T01:09:41.296Z,78.12
2022-11-03T01:12:17.951Z,77.56
2022-11-03T01:14:49.300Z,77.23
2022-11-03T01:17:25.113Z,76.27
2022-11-03T01:19:53.067Z,76.58
2022-11-03T01:22:21.542Z,75.84
2022-11-03T01:24:56.572Z,75.36
2022-11-03T01:27:23.488Z,75.65
2022-11-03T01:29:55.335Z,74.64
2022-11-03T01:32:24.716Z,75.23
2022-11-03T01:34:51.700Z,75.61
2022-11-03T01:37:18.524Z,76.71
2022-11-03T01:39:45.345Z,75.98
2022-11-03T01:42:15.733Z,75.85
2022-11-03T01:44:47.650Z,75.91
2022-11-03T01:47:29.518Z,75.75
2022-11-03T01:50:06.278Z,76.24
2022-11-03T01:52:54.780Z,75.59
2022-11-03T01:55:29.726Z,75.55
2022-11-03T01:58:04.246Z,75.06
2022-11-03T02:00:34.081Z,74.24
2022-11-03T02:03:04.542Z,74.81
2022-11-03T02:05:31.699Z,74.76
2022-11-03T02:08:15.536Z,77.13
2022-11-03T02:10:48.484Z,76.13
2022-11-03T02:13:25.766Z,76.60
2022-11-03T02:16:02.830Z,75.18
2022-11-03T02:18:33.613Z,74.84
2022-11-03T02:21:35.715Z,75.35
2022-11-03T02:24:31.373Z,74.84
2022-11-03T02:26:58.305Z,75.14
2022-11-03T02:29:25.237Z,75.09
2022-11-03T02:32:07.455Z,74.54
2022-11-03T02:34:48.990Z,74.47
2022-11-03T02:37:25.256Z,74.89
2022-11-03T02:40:19.104Z,75.72
2022-11-03T02:42:51.259Z,75.23
2022-11-03T02:45:21.661Z,75.70
2022-11-03T02:47:56.091Z,76.15
2022-11-03T02:50:28.701Z,77.34
2022-11-03T02:52:56.160Z,76.95
2022-11-03T02:56:00.839Z,76.38
2022-11-03T02:58:52.822Z,76.73
2022-11-03T03:01:34.937Z,76.72
2022-11-03T03:04:07.549Z,76.59
2022-11-03T03:06:46.020Z,76.21
2022-11-03T03:09:29.868Z,76.10
2022-11-03T03:12:00.589Z,77.02
2022-11-03T03:14:36.575Z,77.11
2022-11-03T03:17:19.375Z,76.52
2022-11-03T03:20:08.540Z,76.72
2022-11-03T03:22:58.935Z,78.02
2022-11-03T03:25:29.825Z,77.73
2022-11-03T03:28:16.072Z,76.92
2022-11-03T03:30:45.272Z,76.38
2022-11-03T03:33:17.733Z,77.75
2022-11-03T03:35:48.687Z,78.25
2022-11-03T03:38:27.292Z,77.38
2022-11-03T03:40:57.657Z,77.54
2022-11-03T03:43:31.733Z,78.26
2022-11-03T03:46:06.680Z,78.39
2022-11-03T03:48:37.014Z,78.14
2022-11-03T03:51:07.416Z,78.74
2022-11-03T03:53:34.322Z,79.12
2022-11-03T03:56:01.315Z,79.50
2022-11-03T03:58:28.207Z,79.15
2022-11-03T04:00:55.215Z,79.21
2022-11-03T04:03:25.445Z,79.07
2022-11-03T04:05:57.208Z,78.71
2022-11-03T04:08:24.153Z,78.28
2022-11-03T04:11:09.625Z,78.23
2022-11-03T04:13:55.076Z,78.06
2022-11-03T04:16:40.367Z,78.12
2022-11-03T04:19:30.353Z,77.41
2022-11-03T04:22:18.048Z,77.30
2022-11-03T04:24:52.401Z,78.83
2022-11-03T04:27:34.223Z,78.06
2022-11-03T04:30:16.844Z,78.21
2022-11-03T04:32:46.358Z,78.31
2022-11-03T04:35:30.024Z,78.63
2022-11-03T04:38:02.553Z,79.37
2022-11-03T04:40:32.354Z,79.71
2022-11-03T04:43:05.527Z,78.19
2022-11-03T04:45:34.416Z,78.96
2022-11-03T04:48:10.614Z,79.90
2022-11-03T04:50:37.575Z,80.16
2022-11-03T04:53:13.391Z,80.22
2022-11-03T04:55:42.021Z,79.73
2022-11-03T04:58:36.841Z,78.61
2022-11-03T05:01:04.888Z,80.27
2022-11-03T05:03:39.806Z,81.11
2022-11-03T05:06:28.852Z,81.35
2022-11-03T05:09:02.977Z,80.55
2022-11-03T05:11:40.593Z,78.79
2022-11-03T05:14:17.638Z,79.22
2022-11-03T05:16:48.087Z,79.53
2022-11-03T05:19:43.107Z,78.77
2022-11-03T05:22:22.425Z,78.69
2022-11-03T05:24:56.829Z,77.24
2022-11-03T05:27:24.707Z,77.81
2022-11-03T05:30:00.591Z,79.02
2022-11-03T05:32:33.608Z,79.07
2022-11-03T05:35:01.326Z,78.42
2022-11-03T05:37:31.660Z,78.94
2022-11-03T05:40:25.732Z,77.64
2022-11-03T05:43:00.609Z,77.76
2022-11-03T05:45:34.778Z,78.53
2022-11-03T05:48:23.368Z,79.16
2022-11-03T05:50:52.732Z,80.83
2022-11-03T05:53:38.524Z,81.31
2022-11-03T05:56:07.256Z,82.09
2022-11-03T05:58:42.961Z,80.30
2022-11-03T06:01:16.616Z,80.04
2022-11-03T06:03:43.590Z,79.63
2022-11-03T06:06:31.779Z,79.56
2022-11-03T06:09:13.040Z,79.27
2022-11-03T06:11:43.445Z,79.55
2022-11-03T06:14:26.019Z,78.40
2022-11-03T06:17:09.883Z,78.82
2022-11-03T06:19:44.476Z,79.59
2022-11-03T06:22:29.368Z,80.20
2022-11-03T06:25:11.289Z,80.01
2022-11-03T06:27:40.611Z,79.29
2022-11-03T06:30:34.772Z,77.61
2022-11-03T06:33:34.713Z,77.23
2022-11-03T06:36:23.266Z,77.02
2022-11-03T06:39:04.448Z,78.25
2022-11-03T06:41:36.466Z,77.75
2022-11-03T06:44:23.454Z,76.70
2022-11-03T06:46:56.599Z,78.96
2022-11-03T06:49:35.852Z,78.01
2022-11-03T06:52:17.984Z,76.77
2022-11-03T06:54:49.814Z,76.15
2022-11-03T06:57:22.188Z,76.24
2022-11-03T07:00:06.636Z,76.46
2022-11-03T07:02:53.328Z,77.77
2022-11-03T07:05:29.462Z,77.83
2022-11-03T07:08:10.957Z,75.40
2022-11-03T07:10:37.938Z,73.50
2022-11-03T07:13:16.511Z,71.01
2022-11-03T07:15:46.945Z,69.62
2022-11-03T07:18:25.820Z,68.28
2022-11-03T07:20:54.970Z,67.10
2022-11-03T07:23:27.120Z,69.75
2022-11-03T07:26:05.841Z,69.76
2022-11-03T07:28:39.137Z,67.58
2022-11-03T07:31:28.418Z,67.83
2022-11-03T07:33:59.153Z,67.42
2022-11-03T07:36:31.023Z,67.95
2022-11-03T07:39:01.454Z,68.85
2022-11-03T07:41:34.754Z,69.88
2022-11-03T07:44:02.333Z,69.61
2022-11-03T07:46:29.370Z,69.11
2022-11-03T07:48:58.849Z,70.00
2022-11-03T07:51:28.534Z,69.29
2022-11-03T07:54:01.900Z,70.38
2022-11-03T07:56:42.627Z,68.90
2022-11-03T07:59:09.717Z,68.50
2022-11-03T08:01:42.350Z,69.76
2022-11-03T08:04:31.994Z,70.96
2022-11-03T08:07:01.435Z,71.14
2022-11-03T08:09:30.412Z,71.23
2022-11-03T08:11:57.285Z,72.12
2022-11-03T08:14:24.098Z,72.74
2022-11-03T08:16:54.156Z,72.50
2022-11-03T08:19:20.968Z,72.42
2022-11-03T08:21:47.779Z,71.73
2022-11-03T08:24:14.659Z,73.76
2022-11-03T08:26:41.509Z,73.74
2022-11-03T08:29:08.317Z,73.77
2022-11-03T08:31:37.342Z,73.38
2022-11-03T08:34:04.629Z,72.58
2022-11-03T08:36:32.437Z,71.91
2022-11-03T08:39:01.872Z,71.37
2022-11-03T08:41:28.665Z,71.92
2022-11-03T08:43:55.872Z,71.85
2022-11-03T08:46:22.871Z,71.76
2022-11-03T08:48:49.961Z,71.08
2022-11-03T08:51:17.016Z,70.89
2022-11-03T08:53:44.199Z,71.13
2022-11-03T08:56:13.804Z,70.77
2022-11-03T08:58:44.124Z,71.95
2022-11-03T09:01:11.165Z,71.71
2022-11-03T09:03:38.352Z,69.77
2022-11-03T09:06:05.792Z,69.27
2022-11-03T09:11:19.436Z,68.25
2022-11-03T09:13:49.284Z,68.34
2022-11-03T09:16:17.049Z,67.23
2022-11-03T09:18:45.389Z,66.17
2022-11-03T09:21:14.899Z,66.54
2022-11-03T09:23:42.005Z,66.48
2022-11-03T09:26:11.310Z,66.20
2022-11-03T09:28:45.201Z,65.35
2022-11-03T09:31:12.122Z,64.98
2022-11-03T09:33:41.970Z,66.71
2022-11-03T09:36:13.579Z,64.10
2022-11-03T09:38:45.185Z,62.02
2022-11-03T09:41:26.266Z,60.17
2022-11-03T09:44:02.787Z,58.92
2022-11-03T09:46:30.620Z,57.10
2022-11-03T09:48:58.869Z,53.36
2022-11-03T09:51:27.523Z,53.47
2022-11-03T09:54:02.059Z,50.10
2022-11-03T09:56:38.456Z,48.04
2022-11-03T09:59:21.736Z,46.14
2022-11-03T10:01:53.542Z,47.03
2022-11-03T10:04:31.181Z,46.14
2022-11-03T10:07:03.497Z,44.20
2022-11-03T10:09:30.436Z,42.11
2022-11-03T10:11:57.314Z,39.36
2022-11-03T10:14:24.580Z,39.20
2022-11-03T10:17:02.524Z,39.95
2022-11-03T10:19:30.079Z,38.85
2022-11-03T10:21:56.905Z,34.72
2022-11-03T10:24:24.905Z,35.63
2022-11-03T10:26:57.424Z,40.86
2022-11-03T10:29:28.704Z,44.92
2022-11-03T10:31:58.823Z,42.14
2022-11-03T10:34:37.813Z,41.04
2022-11-03T10:37:17.231Z,37.98
2022-11-03T10:39:47.878Z,38.41
2022-11-03T10:42:30.670Z,38.86
2022-11-03T10:45:20.452Z,36.61
2022-11-03T10:48:08.138Z,37.96
2022-11-03T10:50:43.219Z,40.14
2022-11-03T10:53:18.215Z,42.73
2022-11-03T10:55:45.504Z,43.72
2022-11-03T10:58:14.664Z,43.25
2022-11-03T11:00:45.406Z,43.23
2022-11-03T11:03:19.643Z,41.71
2022-11-03T11:05:49.261Z,39.63
2022-11-03T11:08:23.132Z,36.67
2022-11-03T11:10:54.081Z,36.32
2022-11-03T11:13:26.162Z,35.38
2022-11-03T11:16:02.020Z,35.02
2022-11-03T11:18:31.172Z,38.42
2022-11-03T11:21:24.177Z,39.72
2022-11-03T11:23:53.686Z,38.47
2022-11-03T11:26:26.300Z,38.29
2022-11-03T11:29:11.237Z,40.52
2022-11-03T11:32:51.027Z,40.80
2022-11-03T11:35:23.791Z,41.29
2022-11-03T11:37:50.849Z,43.39
2022-11-03T11:40:26.458Z,43.33
2022-11-03T11:43:13.566Z,44.08
2022-11-03T11:46:22.423Z,45.57
2022-11-03T11:49:04.656Z,48.41
2022-11-03T11:51:36.625Z,48.85
2022-11-03T11:54:18.685Z,49.99
2022-11-03T11:56:48.489Z,50.56
2022-11-03T11:59:25.809Z,51.27
2022-11-03T12:01:57.200Z,52.74
2022-11-03T12:04:31.025Z,53.90
2022-11-03T12:06:58.374Z,54.88
2022-11-03T12:09:27.995Z,56.81
2022-11-03T12:12:03.536Z,56.52
2022-11-03T12:14:37.023Z,56.75
2022-11-03T12:17:19.190Z,57.25
2022-11-03T12:19:46.822Z,58.14
2022-11-03T12:22:41.090Z,58.85
2022-11-03T12:25:37.240Z,57.31
2022-11-03T12:28:04.494Z,56.97
2022-11-03T12:30:35.514Z,56.15
2022-11-03T12:33:05.742Z,54.87
2022-11-03T12:35:32.821Z,57.70
2022-11-03T12:37:59.635Z,56.87
2022-11-03T12:40:27.200Z,57.40
2022-11-03T12:42:56.518Z,58.28
2022-11-03T12:45:23.427Z,56.66
2022-11-03T12:47:50.290Z,57.45
2022-11-03T12:50:17.277Z,57.70
2022-11-03T12:52:45.647Z,58.83
2022-11-03T12:55:12.561Z,58.62
2022-11-03T12:57:41.652Z,59.47
2022-11-03T13:00:09.204Z,60.54
2022-11-03T13:02:36.287Z,60.04
2022-11-03T13:05:03.984Z,59.20
2022-11-03T13:07:34.804Z,57.68
2022-11-03T13:10:07.057Z,55.62
2022-11-03T13:12:38.938Z,57.10
2022-11-03T13:15:10.094Z,56.20
2022-11-03T13:17:59.133Z,56.12
2022-11-03T13:20:26.136Z,55.72
2022-11-03T13:22:55.486Z,57.78
2022-11-03T13:25:24.753Z,58.24
2022-11-03T13:27:54.452Z,59.24
2022-11-03T13:30:25.475Z,59.27
2022-11-03T13:32:52.638Z,59.64
2022-11-03T13:35:20.002Z,60.78
2022-11-03T13:37:47.155Z,61.61
2022-11-03T13:40:35.849Z,62.48
2022-11-03T13:43:02.294Z,63.21
2022-11-03T13:45:29.420Z,63.77
2022-11-03T13:48:47.446Z,63.41
2022-11-03T13:50:45.249Z,63.41
2022-11-03T13:56:05.234Z,64.50
2022-11-03T14:01:22.752Z,64.53
2022-11-03T14:06:44.732Z,65.11
2022-11-03T14:09:14.052Z,64.95
2022-11-03T14:11:59.236Z,64.97
2022-11-03T14:14:26.073Z,65.36
2022-11-03T14:16:52.991Z,65.76
2022-11-03T14:19:19.996Z,65.60
2022-11-03T14:21:46.878Z,65.75
2022-11-03T14:24:16.531Z,65.76
2022-11-03T14:26:43.671Z,66.15
2022-11-03T14:29:10.725Z,66.47
2022-11-03T14:31:37.588Z,66.60
2022-11-03T14:34:09.837Z,66.71
2022-11-03T14:36:36.775Z,67.00
2022-11-03T14:39:07.061Z,67.39
2022-11-03T14:41:52.234Z,66.84
2022-11-03T14:44:19.091Z,67.13
2022-11-03T14:46:46.019Z,66.92
2022-11-03T14:49:12.931Z,66.72
2022-11-03T14:51:42.992Z,67.31
2022-11-03T14:54:09.812Z,67.22
2022-11-03T14:56:36.636Z,67.22
2022-11-03T14:59:08.934Z,67.88
2022-11-03T15:01:37.359Z,67.52
2022-11-03T15:04:05.078Z,68.45
2022-11-03T15:06:34.073Z,69.74
2022-11-03T15:09:04.011Z,70.03
2022-11-03T15:11:31.376Z,70.93
2022-11-03T15:13:58.239Z,70.51
2022-11-03T15:16:25.227Z,70.58
2022-11-03T15:18:54.701Z,70.50
2022-11-03T15:21:21.572Z,69.98
2022-11-03T15:26:41.437Z,70.33
2022-11-03T15:29:10.747Z,70.84
2022-11-03T15:31:38.360Z,70.73
2022-11-03T15:34:08.756Z,70.92
2022-11-03T15:36:35.986Z,71.94
2022-11-03T15:39:03.400Z,72.08
2022-11-03T15:41:30.899Z,71.84
2022-11-03T15:44:00.414Z,72.73
2022-11-03T15:46:30.037Z,72.85
2022-11-03T15:48:57.806Z,73.25
2022-11-03T15:51:25.274Z,74.58
2022-11-03T15:53:58.775Z,74.22
2022-11-03T15:56:31.930Z,73.75
2022-11-03T15:58:58.823Z,73.40
2022-11-03T16:01:28.009Z,73.24
2022-11-03T16:03:55.053Z,73.43
2022-11-03T16:06:46.632Z,72.76
2022-11-03T16:09:13.496Z,73.92
2022-11-03T16:11:43.347Z,74.12
2022-11-03T16:14:15.174Z,74.33
2022-11-03T16:16:42.018Z,74.58
2022-11-03T16:19:11.471Z,74.78
2022-11-03T16:21:38.348Z,74.76
2022-11-03T16:24:05.520Z,75.53
2022-11-03T16:26:32.446Z,75.70
2022-11-03T16:28:59.334Z,75.99
2022-11-03T16:31:29.016Z,75.92
2022-11-03T16:33:55.849Z,76.39
2022-11-03T16:36:25.125Z,76.69
2022-11-03T16:38:51.996Z,76.39
2022-11-03T16:41:18.935Z,76.09
2022-11-03T16:43:49.771Z,75.72
2022-11-03T16:46:16.799Z,76.70
2022-11-03T16:48:43.701Z,76.76
2022-11-03T16:51:10.557Z,77.18
2022-11-03T16:53:37.365Z,76.15
2022-11-03T16:56:04.597Z,76.27
2022-11-03T16:58:31.435Z,76.28
2022-11-03T17:01:00.893Z,76.08
2022-11-03T17:03:27.817Z,75.52
2022-11-03T17:06:00.129Z,74.89
2022-11-03T17:08:51.691Z,75.20
2022-11-03T17:11:16.028Z,76.48
2022-11-03T17:13:42.908Z,76.95
2022-11-03T17:16:09.784Z,76.22
2022-11-03T17:18:39.164Z,76.16
2022-11-03T17:21:08.623Z,75.39
2022-11-03T17:23:35.561Z,75.14
2022-11-03T17:26:03.241Z,75.53
2022-11-03T17:28:30.235Z,74.58
2022-11-03T17:30:59.330Z,74.78
2022-11-03T17:33:28.718Z,74.69
2022-11-03T17:35:58.499Z,74.13
2022-11-03T17:38:26.273Z,74.38
2022-11-03T17:40:53.125Z,74.70
2022-11-03T17:43:27.177Z,74.89
2022-11-03T17:45:56.430Z,74.54
2022-11-03T17:48:25.854Z,73.83
2022-11-03T17:50:55.631Z,73.72
2022-11-03T17:53:26.491Z,73.73
2022-11-03T17:56:28.045Z,73.55
2022-11-03T17:58:46.832Z,73.16
2022-11-03T18:01:25.422Z,72.68
2022-11-03T18:03:53.193Z,72.18
2022-11-03T18:06:25.423Z,72.09
2022-11-03T18:08:54.851Z,72.32
2022-11-03T18:11:45.190Z,71.63
2022-11-03T18:14:14.780Z,71.78
2022-11-03T18:16:44.304Z,71.37
2022-11-03T18:19:16.136Z,70.83
2022-11-03T18:21:45.706Z,71.52
2022-11-03T18:24:18.851Z,71.54
2022-11-03T18:26:46.012Z,71.07
2022-11-03T18:29:12.901Z,70.57
2022-11-03T18:31:49.696Z,71.06
2022-11-03T18:34:22.874Z,70.96
2022-11-03T18:36:50.125Z,71.18
2022-11-03T18:39:26.937Z,71.44
2022-11-03T18:41:56.776Z,71.27
2022-11-03T18:44:24.855Z,71.59
2022-11-03T18:46:52.758Z,70.89
2022-11-03T18:49:22.084Z,69.85
2022-11-03T18:52:02.861Z,70.42
2022-11-03T18:54:34.991Z,70.47
2022-11-03T18:57:02.720Z,71.34
2022-11-03T18:59:37.083Z,70.75
2022-11-03T19:02:22.128Z,71.31
2022-11-03T19:04:52.097Z,71.37
2022-11-03T19:07:29.159Z,70.39
2022-11-03T19:09:56.523Z,71.08
2022-11-03T19:12:26.223Z,71.36
2022-11-03T19:14:53.154Z,70.76
2022-11-03T19:17:23.537Z,70.15
2022-11-03T19:19:53.053Z,70.63
2022-11-03T19:22:23.185Z,71.07
2022-11-03T19:24:50.107Z,70.34
2022-11-03T19:27:25.522Z,69.77
2022-11-03T19:29:58.622Z,70.42
2022-11-03T19:32:32.342Z,70.62
2022-11-03T19:35:07.257Z,70.88
2022-11-03T19:37:36.005Z,70.90
2022-11-03T19:40:08.655Z,71.36
2022-11-03T19:42:38.179Z,71.60
2022-11-03T19:45:12.666Z,71.19
2022-11-03T19:50:38.411Z,71.27
2022-11-03T19:53:07.426Z,70.72
2022-11-03T19:55:42.214Z,70.34
2022-11-03T19:58:20.413Z,70.74
2022-11-03T20:00:48.121Z,71.26
2022-11-03T20:03:17.702Z,69.83
2022-11-03T20:05:49.362Z,72.22
2022-11-03T20:08:23.720Z,72.76
2022-11-03T20:10:50.656Z,73.00
2022-11-03T20:13:21.562Z,72.39
2022-11-03T20:15:48.422Z,73.04
2022-11-03T20:18:18.334Z,73.72
2022-11-03T20:20:48.226Z,73.62
2022-11-03T20:23:26.190Z,72.83
2022-11-03T20:25:53.916Z,73.34
2022-11-03T20:28:28.499Z,72.84
2022-11-03T20:30:57.057Z,73.03
2022-11-03T20:33:25.395Z,72.70
2022-11-03T20:35:56.687Z,73.80
2022-11-03T20:38:27.690Z,74.04
2022-11-03T20:40:59.826Z,74.80
2022-11-03T20:43:43.502Z,74.73
2022-11-03T20:46:26.427Z,73.24
2022-11-03T20:48:58.965Z,73.75
2022-11-03T20:51:30.988Z,73.44
2022-11-03T20:53:59.357Z,73.59
2022-11-03T20:56:29.700Z,74.03
2022-11-03T20:58:58.111Z,74.82
2022-11-03T21:01:35.491Z,73.39
2022-11-03T21:04:03.835Z,75.14
2022-11-03T21:06:36.360Z,74.61
2022-11-03T21:09:09.567Z,73.90
2022-11-03T21:11:40.584Z,74.21
2022-11-03T21:14:26.065Z,73.29
2022-11-03T21:17:11.713Z,74.00
2022-11-03T21:20:01.893Z,73.66
2022-11-03T21:22:52.270Z,74.70
2022-11-03T21:25:22.497Z,75.57
2022-11-03T21:27:53.511Z,75.64
2022-11-03T21:30:22.975Z,74.13
2022-11-03T21:32:52.314Z,75.21
2022-11-03T21:35:21.506Z,74.96
2022-11-03T21:37:48.600Z,76.17
2022-11-03T21:40:15.575Z,75.72
2022-11-03T21:43:00.738Z,75.69
2022-11-03T21:45:27.699Z,76.87
2022-11-03T21:48:14.403Z,77.06
2022-11-03T21:50:42.625Z,76.23
2022-11-03T21:53:10.447Z,76.31
2022-11-03T21:55:40.077Z,76.72
2022-11-03T21:58:06.893Z,77.44
2022-11-03T22:00:36.529Z,76.43
2022-11-03T22:03:03.407Z,77.54
2022-11-03T22:05:33.312Z,78.17
2022-11-03T22:08:00.115Z,77.99
2022-11-03T22:10:29.246Z,78.10
2022-11-03T22:12:56.049Z,79.71
2022-11-03T22:15:41.128Z,80.64
2022-11-03T22:18:08.376Z,82.41
2022-11-03T22:20:58.813Z,81.71
2022-11-03T22:23:44.211Z,81.84
2022-11-03T22:26:37.456Z,81.42
2022-11-03T22:29:25.291Z,82.11
2022-11-03T22:31:56.907Z,82.73
2022-11-03T22:34:43.251Z,83.81
2022-11-03T22:37:12.549Z,83.73
2022-11-03T22:40:04.082Z,84.08
2022-11-03T22:42:49.549Z,84.38
2022-11-03T22:45:38.685Z,84.19
2022-11-03T22:48:06.622Z,85.09
2022-11-03T22:50:33.684Z,85.79
2022-11-03T22:53:21.868Z,85.52
2022-11-03T22:55:48.702Z,84.80
2022-11-03T22:58:18.417Z,84.98
2022-11-03T23:00:47.759Z,84.28
2022-11-03T23:03:14.807Z,83.67
2022-11-03T23:05:42.839Z,85.96
2022-11-03T23:08:11.904Z,86.98
2022-11-03T23:10:38.908Z,87.78
2022-11-03T23:13:06.357Z,87.16
2022-11-03T23:15:33.404Z,86.38
2022-11-03T23:18:23.308Z,86.33
2022-11-03T23:21:08.211Z,86.86
2022-11-03T23:24:05.008Z,88.14
2022-11-03T23:26:34.893Z,86.63
2022-11-03T23:29:06.039Z,86.70
2022-11-03T23:31:35.118Z,87.16
2022-11-03T23:34:02.402Z,88.36
2022-11-03T23:36:31.059Z,88.87
2022-11-03T23:38:59.504Z,89.41
2022-11-03T23:41:27.737Z,90.47
2022-11-03T23:43:57.434Z,89.55
2022-11-03T23:46:46.114Z,89.78
2022-11-03T23:49:13.857Z,90.11
2022-11-03T23:51:41.954Z,91.30
2022-11-03T23:54:13.659Z,91.37
2022-11-03T23:57:04.771Z,91.56
2022-11-03T23:59:34.035Z,90.37
